sensor_id;sensor_type;location;lat;lon;timestamp;temperature;humidity
9083;DHT22;4577;48.704;9.000;2023-05-16T00:01:35;13.20;96.00
9083;DHT22;4577;48.704;9.000;2023-05-16T00:04:02;13.30;95.80
9083;DHT22;4577;48.704;9.000;2023-05-16T00:06:28;13.20;95.60
9083;DHT22;4577;48.704;9.000;2023-05-16T00:08:55;13.20;95.90
9083;DHT22;4577;48.704;9.000;2023-05-16T00:11:21;13.20;95.70
9083;DHT22;4577;48.704;9.000;2023-05-16T00:13:47;13.10;95.70
9083;DHT22;4577;48.704;9.000;2023-05-16T00:16:13;13.10;95.70
9083;DHT22;4577;48.704;9.000;2023-05-16T00:18:39;13.10;95.70
9083;DHT22;4577;48.704;9.000;2023-05-16T00:21:05;13.10;95.70
9083;DHT22;4577;48.704;9.000;2023-05-16T00:23:31;13.10;95.70
9083;DHT22;4577;48.704;9.000;2023-05-16T00:25:57;13.10;95.50
9083;DHT22;4577;48.704;9.000;2023-05-16T00:28:23;13.10;95.60
9083;DHT22;4577;48.704;9.000;2023-05-16T00:30:48;13.10;95.20
9083;DHT22;4577;48.704;9.000;2023-05-16T00:33:14;13.10;95.40
9083;DHT22;4577;48.704;9.000;2023-05-16T00:35:40;13.10;95.20
9083;DHT22;4577;48.704;9.000;2023-05-16T00:38:06;13.10;95.00
9083;DHT22;4577;48.704;9.000;2023-05-16T00:40:31;13.00;95.10
9083;DHT22;4577;48.704;9.000;2023-05-16T00:42:57;12.90;95.10
9083;DHT22;4577;48.704;9.000;2023-05-16T00:45:23;12.90;95.30
9083;DHT22;4577;48.704;9.000;2023-05-16T00:47:52;12.80;95.20
9083;DHT22;4577;48.704;9.000;2023-05-16T00:50:18;12.70;95.20
9083;DHT22;4577;48.704;9.000;2023-05-16T00:52:44;12.70;95.30
9083;DHT22;4577;48.704;9.000;2023-05-16T00:55:10;12.70;95.50
9083;DHT22;4577;48.704;9.000;2023-05-16T00:57:37;12.60;95.50
9083;DHT22;4577;48.704;9.000;2023-05-16T01:00:04;12.50;95.70
9083;DHT22;4577;48.704;9.000;2023-05-16T01:02:31;12.50;95.90
9083;DHT22;4577;48.704;9.000;2023-05-16T01:04:57;12.50;96.00
9083;DHT22;4577;48.704;9.000;2023-05-16T01:07:23;12.50;96.00
9083;DHT22;4577;48.704;9.000;2023-05-16T01:09:49;12.50;96.00
9083;DHT22;4577;48.704;9.000;2023-05-16T01:12:22;12.40;96.30
9083;DHT22;4577;48.704;9.000;2023-05-16T01:15:08;12.40;96.40
9083;DHT22;4577;48.704;9.000;2023-05-16T01:20:32;12.30;96.70
9083;DHT22;4577;48.704;9.000;2023-05-16T01:26:12;12.30;97.00
9083;DHT22;4577;48.704;9.000;2023-05-16T01:28:40;12.30;97.00
9083;DHT22;4577;48.704;9.000;2023-05-16T01:31:06;12.20;97.40
9083;DHT22;4577;48.704;9.000;2023-05-16T01:33:31;12.30;97.20
9083;DHT22;4577;48.704;9.000;2023-05-16T01:38:45;12.20;97.20
9083;DHT22;4577;48.704;9.000;2023-05-16T01:41:24;12.10;97.40
9083;DHT22;4577;48.704;9.000;2023-05-16T01:44:01;12.10;97.40
9083;DHT22;4577;48.704;9.000;2023-05-16T01:46:35;12.00;97.50
9083;DHT22;4577;48.704;9.000;2023-05-16T01:49:08;12.10;97.70
9083;DHT22;4577;48.704;9.000;2023-05-16T01:51:41;12.10;97.50
9083;DHT22;4577;48.704;9.000;2023-05-16T01:54:11;12.00;97.40
9083;DHT22;4577;48.704;9.000;2023-05-16T01:56:38;12.00;97.40
9083;DHT22;4577;48.704;9.000;2023-05-16T01:59:05;11.90;97.60
9083;DHT22;4577;48.704;9.000;2023-05-16T02:01:32;11.90;97.80
9083;DHT22;4577;48.704;9.000;2023-05-16T02:03:58;11.90;97.90
9083;DHT22;4577;48.704;9.000;2023-05-16T02:06:24;11.80;98.00
9083;DHT22;4577;48.704;9.000;2023-05-16T02:08:52;11.80;97.90
9083;DHT22;4577;48.704;9.000;2023-05-16T02:11:18;11.80;98.00
9083;DHT22;4577;48.704;9.000;2023-05-16T02:13:44;11.80;98.20
9083;DHT22;4577;48.704;9.000;2023-05-16T02:16:10;11.80;98.30
9083;DHT22;4577;48.704;9.000;2023-05-16T02:18:36;11.80;98.40
9083;DHT22;4577;48.704;9.000;2023-05-16T02:21:01;11.80;98.20
9083;DHT22;4577;48.704;9.000;2023-05-16T02:23:27;11.80;98.30
9083;DHT22;4577;48.704;9.000;2023-05-16T02:25:53;11.80;98.10
9083;DHT22;4577;48.704;9.000;2023-05-16T02:28:18;11.80;98.20
9083;DHT22;4577;48.704;9.000;2023-05-16T02:30:44;11.80;98.50
9083;DHT22;4577;48.704;9.000;2023-05-16T02:33:10;11.70;98.60
9083;DHT22;4577;48.704;9.000;2023-05-16T02:35:36;11.60;98.80
9083;DHT22;4577;48.704;9.000;2023-05-16T02:38:01;11.60;99.00
9083;DHT22;4577;48.704;9.000;2023-05-16T02:40:27;11.70;99.20
9083;DHT22;4577;48.704;9.000;2023-05-16T02:42:52;11.60;99.40
9083;DHT22;4577;48.704;9.000;2023-05-16T02:45:18;11.60;99.40
9083;DHT22;4577;48.704;9.000;2023-05-16T02:47:44;11.60;99.10
9083;DHT22;4577;48.704;9.000;2023-05-16T02:50:09;11.60;99.40
9083;DHT22;4577;48.704;9.000;2023-05-16T02:52:35;11.60;99.80
9083;DHT22;4577;48.704;9.000;2023-05-16T02:55:01;11.60;99.80
9083;DHT22;4577;48.704;9.000;2023-05-16T02:57:26;11.50;99.90
9083;DHT22;4577;48.704;9.000;2023-05-16T02:59:52;11.60;99.90
9083;DHT22;4577;48.704;9.000;2023-05-16T03:02:18;11.40;99.90
9083;DHT22;4577;48.704;9.000;2023-05-16T03:04:43;11.40;99.90
9083;DHT22;4577;48.704;9.000;2023-05-16T03:07:09;11.40;99.90
9083;DHT22;4577;48.704;9.000;2023-05-16T03:09:35;11.50;99.90
9083;DHT22;4577;48.704;9.000;2023-05-16T03:12:01;11.60;99.90
9083;DHT22;4577;48.704;9.000;2023-05-16T03:14:26;11.60;99.90
9083;DHT22;4577;48.704;9.000;2023-05-16T03:16:52;11.70;99.90
9083;DHT22;4577;48.704;9.000;2023-05-16T03:19:18;11.60;99.90
9083;DHT22;4577;48.704;9.000;2023-05-16T03:21:43;11.70;99.90
9083;DHT22;4577;48.704;9.000;2023-05-16T03:24:09;11.60;99.90
9083;DHT22;4577;48.704;9.000;2023-05-16T03:26:35;11.70;99.90
9083;DHT22;4577;48.704;9.000;2023-05-16T03:29:01;11.70;99.90
9083;DHT22;4577;48.704;9.000;2023-05-16T03:31:26;11.70;99.90
9083;DHT22;4577;48.704;9.000;2023-05-16T03:33:52;11.70;99.90
9083;DHT22;4577;48.704;9.000;2023-05-16T03:36:20;11.70;99.90
9083;DHT22;4577;48.704;9.000;2023-05-16T03:38:46;11.70;99.90
9083;DHT22;4577;48.704;9.000;2023-05-16T03:41:12;11.60;99.90
9083;DHT22;4577;48.704;9.000;2023-05-16T03:43:38;11.70;99.90
9083;DHT22;4577;48.704;9.000;2023-05-16T03:46:04;11.60;99.90
9083;DHT22;4577;48.704;9.000;2023-05-16T03:48:29;11.60;99.90
9083;DHT22;4577;48.704;9.000;2023-05-16T03:50:55;11.60;99.90
9083;DHT22;4577;48.704;9.000;2023-05-16T03:53:21;11.50;99.90
9083;DHT22;4577;48.704;9.000;2023-05-16T03:58:13;11.50;99.90
9083;DHT22;4577;48.704;9.000;2023-05-16T04:00:38;11.50;99.90
9083;DHT22;4577;48.704;9.000;2023-05-16T04:03:04;11.40;99.90
9083;DHT22;4577;48.704;9.000;2023-05-16T04:05:30;11.50;99.90
9083;DHT22;4577;48.704;9.000;2023-05-16T04:07:55;11.50;99.90
9083;DHT22;4577;48.704;9.000;2023-05-16T04:10:21;11.50;99.90
9083;DHT22;4577;48.704;9.000;2023-05-16T04:12:47;11.40;99.90
9083;DHT22;4577;48.704;9.000;2023-05-16T04:15:13;11.40;99.90
9083;DHT22;4577;48.704;9.000;2023-05-16T04:17:38;11.50;99.90
9083;DHT22;4577;48.704;9.000;2023-05-16T04:20:05;11.50;99.90
9083;DHT22;4577;48.704;9.000;2023-05-16T04:22:31;11.50;99.90
9083;DHT22;4577;48.704;9.000;2023-05-16T04:24:57;11.50;99.90
9083;DHT22;4577;48.704;9.000;2023-05-16T04:27:22;11.40;99.90
9083;DHT22;4577;48.704;9.000;2023-05-16T04:29:48;11.50;99.90
9083;DHT22;4577;48.704;9.000;2023-05-16T04:32:14;11.60;99.90
9083;DHT22;4577;48.704;9.000;2023-05-16T04:34:39;11.60;99.90
9083;DHT22;4577;48.704;9.000;2023-05-16T04:37:06;11.50;99.90
9083;DHT22;4577;48.704;9.000;2023-05-16T04:39:35;11.50;99.90
9083;DHT22;4577;48.704;9.000;2023-05-16T04:42:01;11.50;99.90
9083;DHT22;4577;48.704;9.000;2023-05-16T04:44:27;11.50;99.90
9083;DHT22;4577;48.704;9.000;2023-05-16T04:46:53;11.60;99.90
9083;DHT22;4577;48.704;9.000;2023-05-16T04:49:20;11.50;99.90
9083;DHT22;4577;48.704;9.000;2023-05-16T04:51:46;11.40;99.90
9083;DHT22;4577;48.704;9.000;2023-05-16T04:54:13;11.50;99.90
9083;DHT22;4577;48.704;9.000;2023-05-16T04:56:38;11.50;99.90
9083;DHT22;4577;48.704;9.000;2023-05-16T04:59:04;11.60;99.90
9083;DHT22;4577;48.704;9.000;2023-05-16T05:01:29;11.60;99.90
9083;DHT22;4577;48.704;9.000;2023-05-16T05:03:55;11.60;99.90
9083;DHT22;4577;48.704;9.000;2023-05-16T05:06:21;11.60;99.90
9083;DHT22;4577;48.704;9.000;2023-05-16T05:08:47;11.60;99.90
9083;DHT22;4577;48.704;9.000;2023-05-16T05:11:13;11.70;99.90
9083;DHT22;4577;48.704;9.000;2023-05-16T05:13:38;11.70;99.90
9083;DHT22;4577;48.704;9.000;2023-05-16T05:16:04;11.70;99.90
9083;DHT22;4577;48.704;9.000;2023-05-16T05:18:30;11.70;99.90
9083;DHT22;4577;48.704;9.000;2023-05-16T05:20:56;11.60;99.90
9083;DHT22;4577;48.704;9.000;2023-05-16T05:23:22;11.60;99.90
9083;DHT22;4577;48.704;9.000;2023-05-16T05:25:48;11.60;99.90
9083;DHT22;4577;48.704;9.000;2023-05-16T05:28:14;11.60;99.90
9083;DHT22;4577;48.704;9.000;2023-05-16T05:30:40;11.50;99.90
9083;DHT22;4577;48.704;9.000;2023-05-16T05:33:05;11.50;99.90
9083;DHT22;4577;48.704;9.000;2023-05-16T05:35:31;11.60;99.90
9083;DHT22;4577;48.704;9.000;2023-05-16T05:37:56;11.60;99.90
9083;DHT22;4577;48.704;9.000;2023-05-16T05:40:22;11.50;99.90
9083;DHT22;4577;48.704;9.000;2023-05-16T05:42:48;11.50;99.90
9083;DHT22;4577;48.704;9.000;2023-05-16T05:45:14;11.60;99.90
9083;DHT22;4577;48.704;9.000;2023-05-16T05:47:41;11.60;99.90
9083;DHT22;4577;48.704;9.000;2023-05-16T05:50:07;11.60;99.90
9083;DHT22;4577;48.704;9.000;2023-05-16T05:52:36;11.60;99.90
9083;DHT22;4577;48.704;9.000;2023-05-16T05:55:02;11.60;99.90
9083;DHT22;4577;48.704;9.000;2023-05-16T05:57:27;11.60;99.90
9083;DHT22;4577;48.704;9.000;2023-05-16T05:59:53;11.60;99.90
9083;DHT22;4577;48.704;9.000;2023-05-16T06:02:19;11.60;99.90
9083;DHT22;4577;48.704;9.000;2023-05-16T06:04:45;11.70;99.90
9083;DHT22;4577;48.704;9.000;2023-05-16T06:07:11;11.70;99.90
9083;DHT22;4577;48.704;9.000;2023-05-16T06:09:36;11.70;99.90
9083;DHT22;4577;48.704;9.000;2023-05-16T06:12:02;11.80;99.90
9083;DHT22;4577;48.704;9.000;2023-05-16T06:14:28;12.20;99.90
9083;DHT22;4577;48.704;9.000;2023-05-16T06:16:54;11.80;99.90
9083;DHT22;4577;48.704;9.000;2023-05-16T06:19:19;11.80;99.90
9083;DHT22;4577;48.704;9.000;2023-05-16T06:21:45;11.80;99.90
9083;DHT22;4577;48.704;9.000;2023-05-16T06:24:11;11.80;99.90
9083;DHT22;4577;48.704;9.000;2023-05-16T06:26:36;11.80;99.90
9083;DHT22;4577;48.704;9.000;2023-05-16T06:29:02;11.80;99.90
9083;DHT22;4577;48.704;9.000;2023-05-16T06:31:28;11.90;99.90
9083;DHT22;4577;48.704;9.000;2023-05-16T06:33:53;12.00;99.90
9083;DHT22;4577;48.704;9.000;2023-05-16T06:36:19;12.10;99.90
9083;DHT22;4577;48.704;9.000;2023-05-16T06:38:45;12.10;99.90
9083;DHT22;4577;48.704;9.000;2023-05-16T06:41:10;12.10;99.90
9083;DHT22;4577;48.704;9.000;2023-05-16T06:43:36;12.00;99.90
9083;DHT22;4577;48.704;9.000;2023-05-16T06:46:02;11.90;99.90
9083;DHT22;4577;48.704;9.000;2023-05-16T06:48:28;11.90;99.90
9083;DHT22;4577;48.704;9.000;2023-05-16T06:50:54;11.90;99.90
9083;DHT22;4577;48.704;9.000;2023-05-16T06:53:20;11.80;99.90
9083;DHT22;4577;48.704;9.000;2023-05-16T06:58:12;11.90;99.90
9083;DHT22;4577;48.704;9.000;2023-05-16T07:00:38;11.80;99.90
9083;DHT22;4577;48.704;9.000;2023-05-16T07:03:03;11.80;99.90
9083;DHT22;4577;48.704;9.000;2023-05-16T07:05:29;11.80;99.90
9083;DHT22;4577;48.704;9.000;2023-05-16T07:07:55;11.80;99.90
9083;DHT22;4577;48.704;9.000;2023-05-16T07:10:21;11.80;99.90
9083;DHT22;4577;48.704;9.000;2023-05-16T07:12:47;11.70;99.90
9083;DHT22;4577;48.704;9.000;2023-05-16T07:15:13;11.70;99.90
9083;DHT22;4577;48.704;9.000;2023-05-16T07:17:39;11.80;99.90
9083;DHT22;4577;48.704;9.000;2023-05-16T07:20:06;11.80;99.90
9083;DHT22;4577;48.704;9.000;2023-05-16T07:22:32;11.80;99.90
9083;DHT22;4577;48.704;9.000;2023-05-16T07:24:58;11.70;99.90
9083;DHT22;4577;48.704;9.000;2023-05-16T07:27:26;11.70;99.90
9083;DHT22;4577;48.704;9.000;2023-05-16T07:29:52;11.70;99.90
9083;DHT22;4577;48.704;9.000;2023-05-16T07:32:18;11.70;99.90
9083;DHT22;4577;48.704;9.000;2023-05-16T07:34:43;11.60;99.90
9083;DHT22;4577;48.704;9.000;2023-05-16T07:37:09;11.60;99.90
9083;DHT22;4577;48.704;9.000;2023-05-16T07:39:40;11.60;99.90
9083;DHT22;4577;48.704;9.000;2023-05-16T07:42:06;11.50;99.90
9083;DHT22;4577;48.704;9.000;2023-05-16T07:44:32;11.60;99.90
9083;DHT22;4577;48.704;9.000;2023-05-16T07:46:58;11.70;99.90
9083;DHT22;4577;48.704;9.000;2023-05-16T07:49:24;11.70;99.90
9083;DHT22;4577;48.704;9.000;2023-05-16T07:51:50;11.70;99.90
9083;DHT22;4577;48.704;9.000;2023-05-16T07:54:16;11.60;99.90
9083;DHT22;4577;48.704;9.000;2023-05-16T07:56:41;11.60;99.90
9083;DHT22;4577;48.704;9.000;2023-05-16T07:59:07;11.50;99.90
9083;DHT22;4577;48.704;9.000;2023-05-16T08:01:32;11.50;99.90
9083;DHT22;4577;48.704;9.000;2023-05-16T08:03:58;11.60;99.90
9083;DHT22;4577;48.704;9.000;2023-05-16T08:06:24;11.70;99.90
9083;DHT22;4577;48.704;9.000;2023-05-16T08:08:49;11.70;99.90
9083;DHT22;4577;48.704;9.000;2023-05-16T08:11:15;11.70;99.90
9083;DHT22;4577;48.704;9.000;2023-05-16T08:13:41;11.80;99.90
9083;DHT22;4577;48.704;9.000;2023-05-16T08:16:06;11.60;99.90
9083;DHT22;4577;48.704;9.000;2023-05-16T08:18:32;11.60;99.90
9083;DHT22;4577;48.704;9.000;2023-05-16T08:20:58;11.60;99.90
9083;DHT22;4577;48.704;9.000;2023-05-16T08:23:24;11.40;99.90
9083;DHT22;4577;48.704;9.000;2023-05-16T08:25:49;11.40;99.90
9083;DHT22;4577;48.704;9.000;2023-05-16T08:28:15;11.40;99.90
9083;DHT22;4577;48.704;9.000;2023-05-16T08:30:41;14.00;99.90
9083;DHT22;4577;48.704;9.000;2023-05-16T08:33:07;11.50;99.90
9083;DHT22;4577;48.704;9.000;2023-05-16T08:35:32;11.30;99.90
9083;DHT22;4577;48.704;9.000;2023-05-16T08:38:00;11.30;99.90
9083;DHT22;4577;48.704;9.000;2023-05-16T08:40:27;11.40;99.90
9083;DHT22;4577;48.704;9.000;2023-05-16T08:42:53;11.30;99.90
9083;DHT22;4577;48.704;9.000;2023-05-16T08:45:20;11.40;99.90
9083;DHT22;4577;48.704;9.000;2023-05-16T08:47:48;11.50;99.90
9083;DHT22;4577;48.704;9.000;2023-05-16T08:50:15;11.50;99.90
9083;DHT22;4577;48.704;9.000;2023-05-16T08:52:41;11.40;99.90
9083;DHT22;4577;48.704;9.000;2023-05-16T08:55:08;11.40;99.90
9083;DHT22;4577;48.704;9.000;2023-05-16T08:57:34;11.40;99.90
9083;DHT22;4577;48.704;9.000;2023-05-16T09:00:00;11.40;99.90
9083;DHT22;4577;48.704;9.000;2023-05-16T09:02:27;11.40;99.90
9083;DHT22;4577;48.704;9.000;2023-05-16T09:04:56;11.50;99.90
9083;DHT22;4577;48.704;9.000;2023-05-16T09:07:22;11.50;99.90
9083;DHT22;4577;48.704;9.000;2023-05-16T09:09:49;11.50;99.90
9083;DHT22;4577;48.704;9.000;2023-05-16T09:12:15;11.50;99.90
9083;DHT22;4577;48.704;9.000;2023-05-16T09:14:41;11.60;99.90
9083;DHT22;4577;48.704;9.000;2023-05-16T09:17:08;11.60;99.90
9083;DHT22;4577;48.704;9.000;2023-05-16T09:19:41;11.70;99.90
9083;DHT22;4577;48.704;9.000;2023-05-16T09:22:12;11.70;99.90
9083;DHT22;4577;48.704;9.000;2023-05-16T09:24:42;11.90;99.90
9083;DHT22;4577;48.704;9.000;2023-05-16T09:27:15;11.90;99.90
9083;DHT22;4577;48.704;9.000;2023-05-16T09:29:42;11.90;99.90
9083;DHT22;4577;48.704;9.000;2023-05-16T09:32:15;12.10;99.90
9083;DHT22;4577;48.704;9.000;2023-05-16T09:34:49;12.20;99.90
9083;DHT22;4577;48.704;9.000;2023-05-16T09:37:16;12.20;99.90
9083;DHT22;4577;48.704;9.000;2023-05-16T09:39:47;12.10;99.90
9083;DHT22;4577;48.704;9.000;2023-05-16T09:42:17;12.10;99.90
9083;DHT22;4577;48.704;9.000;2023-05-16T09:44:50;12.00;99.90
9083;DHT22;4577;48.704;9.000;2023-05-16T09:47:17;12.00;99.90
9083;DHT22;4577;48.704;9.000;2023-05-16T09:49:44;12.10;99.90
9083;DHT22;4577;48.704;9.000;2023-05-16T09:52:11;12.20;99.90
9083;DHT22;4577;48.704;9.000;2023-05-16T09:57:03;12.30;99.90
9083;DHT22;4577;48.704;9.000;2023-05-16T09:59:29;12.40;99.90
9083;DHT22;4577;48.704;9.000;2023-05-16T10:01:58;12.30;99.90
9083;DHT22;4577;48.704;9.000;2023-05-16T10:04:25;12.40;99.90
9083;DHT22;4577;48.704;9.000;2023-05-16T10:06:51;12.40;99.90
9083;DHT22;4577;48.704;9.000;2023-05-16T10:09:18;12.20;99.90
9083;DHT22;4577;48.704;9.000;2023-05-16T10:11:45;12.10;99.90
9083;DHT22;4577;48.704;9.000;2023-05-16T10:14:12;12.20;99.90
9083;DHT22;4577;48.704;9.000;2023-05-16T10:16:42;12.30;99.90
9083;DHT22;4577;48.704;9.000;2023-05-16T10:19:11;12.40;99.90
9083;DHT22;4577;48.704;9.000;2023-05-16T10:21:38;12.30;99.70
9083;DHT22;4577;48.704;9.000;2023-05-16T10:24:06;12.30;99.50
9083;DHT22;4577;48.704;9.000;2023-05-16T10:26:36;12.20;99.60
9083;DHT22;4577;48.704;9.000;2023-05-16T10:29:02;12.20;99.70
9083;DHT22;4577;48.704;9.000;2023-05-16T10:31:28;12.20;99.70
9083;DHT22;4577;48.704;9.000;2023-05-16T10:33:58;12.30;99.90
9083;DHT22;4577;48.704;9.000;2023-05-16T10:36:24;12.30;99.50
9083;DHT22;4577;48.704;9.000;2023-05-16T10:38:51;12.40;99.40
9083;DHT22;4577;48.704;9.000;2023-05-16T10:41:18;12.50;99.60
9083;DHT22;4577;48.704;9.000;2023-05-16T10:43:55;12.60;99.20
9083;DHT22;4577;48.704;9.000;2023-05-16T10:46:22;12.50;99.30
9083;DHT22;4577;48.704;9.000;2023-05-16T10:48:48;12.50;98.50
9083;DHT22;4577;48.704;9.000;2023-05-16T10:51:33;12.50;98.30
9083;DHT22;4577;48.704;9.000;2023-05-16T10:54:07;12.50;98.40
9083;DHT22;4577;48.704;9.000;2023-05-16T10:56:33;12.50;98.30
9083;DHT22;4577;48.704;9.000;2023-05-16T10:59:01;12.60;98.10
9083;DHT22;4577;48.704;9.000;2023-05-16T11:01:33;12.70;99.00
9083;DHT22;4577;48.704;9.000;2023-05-16T11:04:05;12.40;98.50
9083;DHT22;4577;48.704;9.000;2023-05-16T11:06:51;12.30;98.70
9083;DHT22;4577;48.704;9.000;2023-05-16T11:09:22;12.30;99.00
9083;DHT22;4577;48.704;9.000;2023-05-16T11:14:43;12.30;99.30
9083;DHT22;4577;48.704;9.000;2023-05-16T11:17:13;12.30;99.50
9083;DHT22;4577;48.704;9.000;2023-05-16T11:22:28;12.20;99.60
9083;DHT22;4577;48.704;9.000;2023-05-16T11:25:08;11.90;99.90
9083;DHT22;4577;48.704;9.000;2023-05-16T11:27:42;11.90;99.90
9083;DHT22;4577;48.704;9.000;2023-05-16T11:30:11;11.90;99.90
9083;DHT22;4577;48.704;9.000;2023-05-16T11:32:39;12.00;99.90
9083;DHT22;4577;48.704;9.000;2023-05-16T11:35:07;12.00;99.90
9083;DHT22;4577;48.704;9.000;2023-05-16T11:37:34;12.00;99.80
9083;DHT22;4577;48.704;9.000;2023-05-16T11:40:07;11.90;99.90
9083;DHT22;4577;48.704;9.000;2023-05-16T11:42:35;11.90;99.90
9083;DHT22;4577;48.704;9.000;2023-05-16T11:47:41;12.00;99.90
9083;DHT22;4577;48.704;9.000;2023-05-16T11:50:13;12.10;99.90
9083;DHT22;4577;48.704;9.000;2023-05-16T11:52:43;12.20;99.90
9083;DHT22;4577;48.704;9.000;2023-05-16T11:55:10;12.10;98.50
9083;DHT22;4577;48.704;9.000;2023-05-16T11:57:37;12.20;98.90
9083;DHT22;4577;48.704;9.000;2023-05-16T12:00:17;12.20;98.30
9083;DHT22;4577;48.704;9.000;2023-05-16T12:02:44;12.20;98.10
9083;DHT22;4577;48.704;9.000;2023-05-16T12:05:13;12.20;98.00
9083;DHT22;4577;48.704;9.000;2023-05-16T12:07:39;12.20;97.70
9083;DHT22;4577;48.704;9.000;2023-05-16T12:10:09;12.20;97.90
9083;DHT22;4577;48.704;9.000;2023-05-16T12:12:36;12.20;98.30
9083;DHT22;4577;48.704;9.000;2023-05-16T12:15:03;12.10;98.10
9083;DHT22;4577;48.704;9.000;2023-05-16T12:17:31;12.20;98.20
9083;DHT22;4577;48.704;9.000;2023-05-16T12:19:57;12.20;98.10
9083;DHT22;4577;48.704;9.000;2023-05-16T12:22:24;12.10;98.10
9083;DHT22;4577;48.704;9.000;2023-05-16T12:24:50;12.00;98.70
9083;DHT22;4577;48.704;9.000;2023-05-16T12:27:25;12.20;98.80
9083;DHT22;4577;48.704;9.000;2023-05-16T12:29:52;12.20;99.00
9083;DHT22;4577;48.704;9.000;2023-05-16T12:32:18;12.20;98.90
9083;DHT22;4577;48.704;9.000;2023-05-16T12:34:52;12.00;98.20
9083;DHT22;4577;48.704;9.000;2023-05-16T12:37:18;11.90;98.90
9083;DHT22;4577;48.704;9.000;2023-05-16T12:39:45;12.00;98.80
9083;DHT22;4577;48.704;9.000;2023-05-16T12:42:13;10.70;98.20
9083;DHT22;4577;48.704;9.000;2023-05-16T12:44:39;11.80;98.90
9083;DHT22;4577;48.704;9.000;2023-05-16T12:47:12;11.70;99.10
9083;DHT22;4577;48.704;9.000;2023-05-16T12:49:45;11.70;99.50
9083;DHT22;4577;48.704;9.000;2023-05-16T12:52:17;11.50;99.70
9083;DHT22;4577;48.704;9.000;2023-05-16T12:54:44;11.40;99.80
9083;DHT22;4577;48.704;9.000;2023-05-16T12:57:10;11.40;99.90
9083;DHT22;4577;48.704;9.000;2023-05-16T12:59:36;11.30;99.90
9083;DHT22;4577;48.704;9.000;2023-05-16T13:02:02;11.10;99.90
9083;DHT22;4577;48.704;9.000;2023-05-16T13:04:28;11.00;99.90
9083;DHT22;4577;48.704;9.000;2023-05-16T13:06:54;10.80;99.90
9083;DHT22;4577;48.704;9.000;2023-05-16T13:09:20;10.90;99.90
9083;DHT22;4577;48.704;9.000;2023-05-16T13:14:12;10.90;99.90
9083;DHT22;4577;48.704;9.000;2023-05-16T13:16:38;11.00;99.90
9083;DHT22;4577;48.704;9.000;2023-05-16T13:19:04;11.00;99.90
9083;DHT22;4577;48.704;9.000;2023-05-16T13:21:30;11.00;99.90
9083;DHT22;4577;48.704;9.000;2023-05-16T13:23:57;11.10;99.90
9083;DHT22;4577;48.704;9.000;2023-05-16T13:26:23;11.00;99.60
9083;DHT22;4577;48.704;9.000;2023-05-16T13:28:48;11.10;99.70
9083;DHT22;4577;48.704;9.000;2023-05-16T13:31:17;11.10;98.70
9083;DHT22;4577;48.704;9.000;2023-05-16T13:33:43;11.00;98.60
9083;DHT22;4577;48.704;9.000;2023-05-16T13:36:09;11.10;98.90
9083;DHT22;4577;48.704;9.000;2023-05-16T13:38:35;8.30;97.60
9083;DHT22;4577;48.704;9.000;2023-05-16T13:41:01;11.30;98.00
9083;DHT22;4577;48.704;9.000;2023-05-16T13:43:27;11.20;97.40
9083;DHT22;4577;48.704;9.000;2023-05-16T13:45:52;11.10;97.30
9083;DHT22;4577;48.704;9.000;2023-05-16T13:48:18;11.10;97.10
9083;DHT22;4577;48.704;9.000;2023-05-16T13:50:44;11.20;96.90
9083;DHT22;4577;48.704;9.000;2023-05-16T13:53:10;11.20;96.60
9083;DHT22;4577;48.704;9.000;2023-05-16T13:58:02;11.20;96.10
9083;DHT22;4577;48.704;9.000;2023-05-16T14:00:28;11.30;96.10
9083;DHT22;4577;48.704;9.000;2023-05-16T14:02:54;11.30;96.10
9083;DHT22;4577;48.704;9.000;2023-05-16T14:05:20;11.30;95.60
9083;DHT22;4577;48.704;9.000;2023-05-16T14:07:45;11.40;95.50
9083;DHT22;4577;48.704;9.000;2023-05-16T14:10:11;11.40;95.50
9083;DHT22;4577;48.704;9.000;2023-05-16T14:12:37;11.40;95.60
9083;DHT22;4577;48.704;9.000;2023-05-16T14:15:03;11.40;94.90
9083;DHT22;4577;48.704;9.000;2023-05-16T14:17:29;11.30;94.70
9083;DHT22;4577;48.704;9.000;2023-05-16T14:19:55;11.30;95.10
9083;DHT22;4577;48.704;9.000;2023-05-16T14:22:20;11.40;94.70
9083;DHT22;4577;48.704;9.000;2023-05-16T14:24:46;11.60;94.70
9083;DHT22;4577;48.704;9.000;2023-05-16T14:27:12;11.50;94.30
9083;DHT22;4577;48.704;9.000;2023-05-16T14:29:39;11.70;94.00
9083;DHT22;4577;48.704;9.000;2023-05-16T14:32:05;11.70;93.90
9083;DHT22;4577;48.704;9.000;2023-05-16T14:34:31;11.90;93.60
9083;DHT22;4577;48.704;9.000;2023-05-16T14:36:57;11.90;93.20
9083;DHT22;4577;48.704;9.000;2023-05-16T14:39:22;12.30;93.80
9083;DHT22;4577;48.704;9.000;2023-05-16T14:41:48;12.10;93.50
9083;DHT22;4577;48.704;9.000;2023-05-16T14:44:14;12.10;93.10
9083;DHT22;4577;48.704;9.000;2023-05-16T14:46:39;12.00;92.30
9083;DHT22;4577;48.704;9.000;2023-05-16T14:49:05;12.00;92.30
9083;DHT22;4577;48.704;9.000;2023-05-16T14:51:31;12.00;92.10
9083;DHT22;4577;48.704;9.000;2023-05-16T14:53:56;13.10;92.00
9083;DHT22;4577;48.704;9.000;2023-05-16T14:56:22;11.90;91.00
9083;DHT22;4577;48.704;9.000;2023-05-16T14:58:51;12.00;91.20
9083;DHT22;4577;48.704;9.000;2023-05-16T15:01:16;12.10;90.60
9083;DHT22;4577;48.704;9.000;2023-05-16T15:03:42;12.00;90.70
9083;DHT22;4577;48.704;9.000;2023-05-16T15:08:34;11.90;91.80
9083;DHT22;4577;48.704;9.000;2023-05-16T15:11:00;11.70;92.50
9083;DHT22;4577;48.704;9.000;2023-05-16T15:13:26;11.70;92.90
9083;DHT22;4577;48.704;9.000;2023-05-16T15:15:51;11.70;93.00
9083;DHT22;4577;48.704;9.000;2023-05-16T15:18:17;11.70;93.20
9083;DHT22;4577;48.704;9.000;2023-05-16T15:20:43;11.80;93.10
9083;DHT22;4577;48.704;9.000;2023-05-16T15:23:08;11.90;92.70
9083;DHT22;4577;48.704;9.000;2023-05-16T15:25:34;11.90;92.70
9083;DHT22;4577;48.704;9.000;2023-05-16T15:28:00;11.90;92.50
9083;DHT22;4577;48.704;9.000;2023-05-16T15:30:26;11.90;92.50
9083;DHT22;4577;48.704;9.000;2023-05-16T15:32:51;11.90;92.20
9083;DHT22;4577;48.704;9.000;2023-05-16T15:35:17;11.90;91.80
9083;DHT22;4577;48.704;9.000;2023-05-16T15:37:43;11.90;91.90
9083;DHT22;4577;48.704;9.000;2023-05-16T15:40:09;11.90;91.50
9083;DHT22;4577;48.704;9.000;2023-05-16T15:42:35;11.80;91.50
9083;DHT22;4577;48.704;9.000;2023-05-16T15:45:01;11.90;91.80
9083;DHT22;4577;48.704;9.000;2023-05-16T15:47:27;12.00;91.40
9083;DHT22;4577;48.704;9.000;2023-05-16T15:49:53;11.90;91.40
9083;DHT22;4577;48.704;9.000;2023-05-16T15:52:18;11.90;91.40
9083;DHT22;4577;48.704;9.000;2023-05-16T15:54:44;11.90;91.00
9083;DHT22;4577;48.704;9.000;2023-05-16T15:57:10;11.80;91.10
9083;DHT22;4577;48.704;9.000;2023-05-16T15:59:36;11.80;91.20
9083;DHT22;4577;48.704;9.000;2023-05-16T16:02:01;11.80;91.10
9083;DHT22;4577;48.704;9.000;2023-05-16T16:04:30;11.70;91.10
9083;DHT22;4577;48.704;9.000;2023-05-16T16:06:56;11.70;91.20
9083;DHT22;4577;48.704;9.000;2023-05-16T16:09:22;11.80;90.90
9083;DHT22;4577;48.704;9.000;2023-05-16T16:11:47;11.80;90.50
9083;DHT22;4577;48.704;9.000;2023-05-16T16:14:14;11.90;90.30
9083;DHT22;4577;48.704;9.000;2023-05-16T16:16:40;11.90;90.20
9083;DHT22;4577;48.704;9.000;2023-05-16T16:19:06;11.90;89.80
9083;DHT22;4577;48.704;9.000;2023-05-16T16:21:32;11.80;89.90
9083;DHT22;4577;48.704;9.000;2023-05-16T16:23:58;11.70;90.10
9083;DHT22;4577;48.704;9.000;2023-05-16T16:26:23;11.70;90.10
9083;DHT22;4577;48.704;9.000;2023-05-16T16:28:50;11.80;90.00
9083;DHT22;4577;48.704;9.000;2023-05-16T16:31:16;11.80;89.80